createdAt,value
2023-03-12T00:00:12.728Z,1001.99
2023-03-12T00:01:12.721Z,1001.98
2023-03-12T00:02:12.733Z,1001.98
2023-03-12T00:03:12.718Z,1001.98
2023-03-12T00:04:12.687Z,1001.99
2023-03-12T00:05:12.678Z,1001.98
2023-03-12T00:06:12.680Z,1001.97
2023-03-12T00:07:12.648Z,1001.98
2023-03-12T00:08:12.662Z,1001.97
2023-03-12T00:09:12.628Z,1001.97
2023-03-12T00:10:13.277Z,1001.96
2023-03-12T00:11:12.623Z,1001.96
2023-03-12T00:12:12.605Z,1001.96
2023-03-12T00:13:12.597Z,1001.96
2023-03-12T00:14:12.575Z,1001.96
2023-03-12T00:15:12.584Z,1001.96
2023-03-12T00:16:12.613Z,1001.96
2023-03-12T00:17:12.539Z,1001.96
2023-03-12T00:18:12.521Z,1001.95
2023-03-12T00:19:12.535Z,1001.96
2023-03-12T00:20:12.515Z,1001.97
2023-03-12T00:21:12.503Z,1001.97
2023-03-12T00:22:12.518Z,1001.96
2023-03-12T00:23:12.488Z,1001.96
2023-03-12T00:24:12.466Z,1001.96
2023-03-12T00:25:12.448Z,1001.96
2023-03-12T00:26:12.437Z,1001.96
2023-03-12T00:27:12.433Z,1001.95
2023-03-12T00:28:12.414Z,1001.94
2023-03-12T00:29:12.426Z,1001.93
2023-03-12T00:30:12.393Z,1001.93
2023-03-12T00:31:12.424Z,1001.92
2023-03-12T00:32:12.365Z,1001.91
2023-03-12T00:33:12.366Z,1001.90
2023-03-12T00:34:12.353Z,1001.88
2023-03-12T00:35:12.336Z,1001.85
2023-03-12T00:36:12.335Z,1001.83
2023-03-12T00:37:12.311Z,1001.79
2023-03-12T00:38:12.305Z,1001.76
2023-03-12T00:39:12.305Z,1001.73
2023-03-12T00:40:12.288Z,1001.71
2023-03-12T00:41:12.278Z,1001.69
2023-03-12T00:42:12.257Z,1001.68
2023-03-12T00:43:12.245Z,1001.65
2023-03-12T00:44:12.235Z,1001.65
2023-03-12T00:45:12.225Z,1001.64
2023-03-12T00:46:12.279Z,1001.61
2023-03-12T00:47:12.209Z,1001.61
2023-03-12T00:48:12.210Z,1001.61
2023-03-12T00:49:12.202Z,1001.59
2023-03-12T00:50:12.177Z,1001.59
2023-03-12T00:51:12.154Z,1001.58
2023-03-12T00:52:12.144Z,1001.58
2023-03-12T00:53:12.143Z,1001.57
2023-03-12T00:54:12.128Z,1001.56
2023-03-12T00:55:12.122Z,1001.55
2023-03-12T00:56:12.103Z,1001.53
2023-03-12T00:57:12.093Z,1001.51
2023-03-12T00:58:12.093Z,1001.51
2023-03-12T00:59:12.069Z,1001.51
2023-03-12T01:00:12.135Z,1001.50
2023-03-12T01:01:12.103Z,1001.48
2023-03-12T01:02:12.039Z,1001.45
2023-03-12T01:03:12.025Z,1001.46
2023-03-12T01:04:12.074Z,1001.45
2023-03-12T01:05:12.049Z,1001.45
2023-03-12T01:06:11.997Z,1001.44
2023-03-12T01:07:11.980Z,1001.44
2023-03-12T01:08:11.974Z,1001.43
2023-03-12T01:09:11.963Z,1001.44
2023-03-12T01:10:11.955Z,1001.45
2023-03-12T01:11:11.936Z,1001.46
2023-03-12T01:12:11.929Z,1001.46
2023-03-12T01:13:11.919Z,1001.46
2023-03-12T01:14:11.933Z,1001.45
2023-03-12T01:15:11.905Z,1001.43
2023-03-12T01:16:11.894Z,1001.39
2023-03-12T01:17:11.871Z,1001.38
2023-03-12T01:18:11.864Z,1001.38
2023-03-12T01:19:11.854Z,1001.40
2023-03-12T01:20:11.866Z,1001.42
2023-03-12T01:21:11.828Z,1001.42
2023-03-12T01:22:11.823Z,1001.42
2023-03-12T01:23:11.816Z,1001.41
2023-03-12T01:24:11.803Z,1001.39
2023-03-12T01:25:11.816Z,1001.39
2023-03-12T01:26:11.785Z,1001.39
2023-03-12T01:27:11.767Z,1001.38
2023-03-12T01:28:11.765Z,1001.37
2023-03-12T01:29:11.741Z,1001.38
2023-03-12T01:30:11.733Z,1001.39
2023-03-12T01:31:11.755Z,1001.38
2023-03-12T01:32:11.711Z,1001.37
2023-03-12T01:33:11.715Z,1001.36
2023-03-12T01:34:11.706Z,1001.34
2023-03-12T01:35:11.725Z,1001.31
2023-03-12T01:36:11.732Z,1001.29
2023-03-12T01:37:11.674Z,1001.27
2023-03-12T01:38:11.647Z,1001.27
2023-03-12T01:39:11.641Z,1001.26
2023-03-12T01:40:11.631Z,1001.25
2023-03-12T01:41:11.623Z,1001.23
2023-03-12T01:42:11.621Z,1001.22
2023-03-12T01:43:11.607Z,1001.23
2023-03-12T01:44:11.588Z,1001.22
2023-03-12T01:45:11.590Z,1001.23
2023-03-12T01:46:11.612Z,1001.22
2023-03-12T01:47:11.555Z,1001.23
2023-03-12T01:48:11.558Z,1001.21
2023-03-12T01:49:11.537Z,1001.21
2023-03-12T01:50:11.546Z,1001.19
2023-03-12T01:51:11.516Z,1001.18
2023-03-12T01:52:11.501Z,1001.17
2023-03-12T01:53:11.499Z,1001.15
2023-03-12T01:54:11.486Z,1001.13
2023-03-12T01:55:11.485Z,1001.10
2023-03-12T01:56:11.460Z,1001.08
2023-03-12T01:57:11.453Z,1001.05
2023-03-12T01:58:11.464Z,1001.02
2023-03-12T01:59:11.431Z,1000.99
2023-03-12T02:00:11.421Z,1000.98
2023-03-12T02:01:11.498Z,1000.96
2023-03-12T02:02:11.413Z,1000.94
2023-03-12T02:03:11.391Z,1000.93
2023-03-12T02:04:11.418Z,1000.90
2023-03-12T02:05:11.430Z,1000.87
2023-03-12T02:06:11.356Z,1000.85
2023-03-12T02:07:11.346Z,1000.82
2023-03-12T02:08:11.337Z,1000.81
2023-03-12T02:09:11.333Z,1000.79
2023-03-12T02:10:11.321Z,1000.80
2023-03-12T02:11:11.316Z,1000.79
2023-03-12T02:12:11.294Z,1000.82
2023-03-12T02:13:11.315Z,1000.86
2023-03-12T02:14:11.301Z,1000.87
2023-03-12T02:15:11.279Z,1000.89
2023-03-12T02:16:11.326Z,1000.88
2023-03-12T02:17:11.252Z,1000.88
2023-03-12T02:18:11.232Z,1000.88
2023-03-12T02:19:11.240Z,1000.87
2023-03-12T02:20:11.211Z,1000.86
2023-03-12T02:21:11.199Z,1000.84
2023-03-12T02:22:11.195Z,1000.81
2023-03-12T02:23:17.338Z,1000.79
2023-03-12T02:24:11.167Z,1000.79
2023-03-12T02:25:11.157Z,1000.79
2023-03-12T02:26:11.147Z,1000.79
2023-03-12T02:27:11.145Z,1000.78
2023-03-12T02:28:11.144Z,1000.76
2023-03-12T02:29:11.119Z,1000.73
2023-03-12T02:30:11.102Z,1000.71
2023-03-12T02:31:11.088Z,1000.67
2023-03-12T02:32:11.098Z,1000.65
2023-03-12T02:33:11.100Z,1000.66
2023-03-12T02:34:11.100Z,1000.66
2023-03-12T02:35:11.057Z,1000.66
2023-03-12T02:36:11.089Z,1000.67
2023-03-12T02:37:11.040Z,1000.68
2023-03-12T02:38:11.038Z,1000.70
2023-03-12T02:39:11.020Z,1000.69
2023-03-12T02:40:11.016Z,1000.68
2023-03-12T02:41:11.005Z,1000.66
2023-03-12T02:42:10.978Z,1000.63
2023-03-12T02:43:10.971Z,1000.61
2023-03-12T02:44:10.978Z,1000.59
2023-03-12T02:45:10.957Z,1000.60
2023-03-12T02:46:10.971Z,1000.60
2023-03-12T02:47:10.935Z,1000.62
2023-03-12T02:48:10.924Z,1000.62
2023-03-12T02:49:10.924Z,1000.62
2023-03-12T02:50:10.899Z,1000.61
2023-03-12T02:51:10.888Z,1000.61
2023-03-12T02:52:10.913Z,1000.60
2023-03-12T02:53:10.863Z,1000.59
2023-03-12T02:54:10.873Z,1000.60
2023-03-12T02:55:10.847Z,1000.60
2023-03-12T02:56:10.851Z,1000.59
2023-03-12T02:57:10.839Z,1000.58
2023-03-12T02:58:10.816Z,1000.55
2023-03-12T02:59:10.812Z,1000.53
2023-03-12T03:00:10.788Z,1000.52
2023-03-12T03:01:10.815Z,1000.51
2023-03-12T03:02:10.773Z,1000.48
2023-03-12T03:03:10.777Z,1000.46
2023-03-12T03:04:10.865Z,1000.45
2023-03-12T03:05:10.737Z,1000.44
2023-03-12T03:06:10.735Z,1000.43
2023-03-12T03:07:10.727Z,1000.42
2023-03-12T03:08:10.720Z,1000.40
2023-03-12T03:09:10.712Z,1000.39
2023-03-12T03:10:10.794Z,1000.38
2023-03-12T03:11:10.697Z,1000.38
2023-03-12T03:12:10.686Z,1000.37
2023-03-12T03:13:10.663Z,1000.38
2023-03-12T03:14:10.657Z,1000.37
2023-03-12T03:15:10.639Z,1000.38
2023-03-12T03:16:10.742Z,1000.35
2023-03-12T03:17:10.640Z,1000.33
2023-03-12T03:18:10.606Z,1000.32
2023-03-12T03:19:10.631Z,1000.29
2023-03-12T03:20:10.588Z,1000.28
2023-03-12T03:21:10.860Z,1000.30
2023-03-12T03:22:10.590Z,1000.33
2023-03-12T03:23:10.569Z,1000.38
2023-03-12T03:24:10.550Z,1000.40
2023-03-12T03:25:10.547Z,1000.38
2023-03-12T03:26:10.533Z,1000.35
2023-03-12T03:27:10.525Z,1000.31
2023-03-12T03:28:10.521Z,1000.26
2023-03-12T03:29:10.524Z,1000.23
2023-03-12T03:30:10.482Z,1000.20
2023-03-12T03:31:10.579Z,1000.19
2023-03-12T03:32:10.480Z,1000.19
2023-03-12T03:33:10.469Z,1000.18
2023-03-12T03:34:10.453Z,1000.19
2023-03-12T03:35:10.430Z,1000.19
2023-03-12T03:36:10.421Z,1000.20
2023-03-12T03:37:10.408Z,1000.21
2023-03-12T03:38:10.396Z,1000.22
2023-03-12T03:39:10.386Z,1000.21
2023-03-12T03:40:10.398Z,1000.21
2023-03-12T03:41:10.366Z,1000.19
2023-03-12T03:42:10.354Z,1000.18
2023-03-12T03:43:10.360Z,1000.17
2023-03-12T03:44:10.358Z,1000.16
2023-03-12T03:45:10.321Z,1000.15
2023-03-12T03:46:10.371Z,1000.15
2023-03-12T03:47:10.319Z,1000.15
2023-03-12T03:48:10.298Z,1000.15
2023-03-12T03:49:10.294Z,1000.14
2023-03-12T03:50:10.274Z,1000.12
2023-03-12T03:51:10.259Z,1000.11
2023-03-12T03:52:10.259Z,1000.10
2023-03-12T03:53:10.241Z,1000.08
2023-03-12T03:54:10.246Z,1000.07
2023-03-12T03:55:10.214Z,1000.07
2023-03-12T03:56:10.217Z,1000.06
2023-03-12T03:57:10.231Z,1000.04
2023-03-12T03:58:10.192Z,1000.01
2023-03-12T03:59:10.192Z,999.99
2023-03-12T04:00:10.167Z,999.97
2023-03-12T04:01:10.162Z,999.96
2023-03-12T04:02:10.157Z,999.95
2023-03-12T04:03:10.162Z,999.96
2023-03-12T04:04:10.130Z,999.96
2023-03-12T04:05:10.118Z,999.96
2023-03-12T04:06:10.126Z,999.97
2023-03-12T04:07:10.091Z,999.97
2023-03-12T04:08:10.095Z,1000.00
2023-03-12T04:09:10.072Z,1000.01
2023-03-12T04:10:10.080Z,1000.01
2023-03-12T04:11:10.084Z,1000.00
2023-03-12T04:12:10.064Z,1000.00
2023-03-12T04:13:10.037Z,999.99
2023-03-12T04:14:10.037Z,999.97
2023-03-12T04:15:10.041Z,999.99
2023-03-12T04:16:10.047Z,999.98
2023-03-12T04:17:10.002Z,999.98
2023-03-12T04:18:10.023Z,999.98
2023-03-12T04:19:09.966Z,999.97
2023-03-12T04:20:09.964Z,999.94
2023-03-12T04:21:09.958Z,999.92
2023-03-12T04:22:09.974Z,999.89
2023-03-12T04:23:09.930Z,999.92
2023-03-12T04:24:09.919Z,999.92
2023-03-12T04:25:09.868Z,999.89
2023-03-12T04:26:09.898Z,999.89
2023-03-12T04:27:09.902Z,999.89
2023-03-12T04:28:09.882Z,999.88
2023-03-12T04:29:09.876Z,999.88
2023-03-12T04:30:09.870Z,999.87
2023-03-12T04:31:09.895Z,999.88
2023-03-12T04:32:09.859Z,999.86
2023-03-12T04:33:09.847Z,999.87
2023-03-12T04:34:10.000Z,999.87
2023-03-12T04:35:09.818Z,999.85
2023-03-12T04:36:09.844Z,999.82
2023-03-12T04:37:09.798Z,999.83
2023-03-12T04:38:09.793Z,999.84
2023-03-12T04:39:09.776Z,999.86
2023-03-12T04:40:09.794Z,999.84
2023-03-12T04:41:09.765Z,999.83
2023-03-12T04:42:09.734Z,999.80
2023-03-12T04:43:09.716Z,999.78
2023-03-12T04:44:12.583Z,999.75
2023-03-12T04:45:09.715Z,999.73
2023-03-12T04:46:09.777Z,999.70
2023-03-12T04:47:09.684Z,999.71
2023-03-12T04:48:09.670Z,999.71
2023-03-12T04:49:09.658Z,999.70
2023-03-12T04:50:09.662Z,999.67
2023-03-12T04:51:09.655Z,999.65
2023-03-12T04:52:09.644Z,999.64
2023-03-12T04:53:09.711Z,999.61
2023-03-12T04:54:09.627Z,999.62
2023-03-12T04:55:09.603Z,999.62
2023-03-12T04:56:09.600Z,999.64
2023-03-12T04:57:09.586Z,999.67
2023-03-12T04:58:09.571Z,999.70
2023-03-12T04:59:09.577Z,999.73
2023-03-12T05:00:09.547Z,999.75
2023-03-12T05:01:09.543Z,999.71
2023-03-12T05:02:09.529Z,999.73
2023-03-12T05:03:09.534Z,999.73
2023-03-12T05:04:09.616Z,999.73
2023-03-12T05:05:09.504Z,999.70
2023-03-12T05:06:09.519Z,999.70
2023-03-12T05:07:09.482Z,999.67
2023-03-12T05:08:09.466Z,999.64
2023-03-12T05:09:09.456Z,999.60
2023-03-12T05:10:09.419Z,999.58
2023-03-12T05:11:09.458Z,999.58
2023-03-12T05:12:09.394Z,999.56
2023-03-12T05:13:09.429Z,999.54
2023-03-12T05:14:09.409Z,999.50
2023-03-12T05:15:09.417Z,999.46
2023-03-12T05:16:09.362Z,999.40
2023-03-12T05:17:09.415Z,999.38
2023-03-12T05:18:09.366Z,999.36
2023-03-12T05:19:09.360Z,999.34
2023-03-12T05:20:09.349Z,999.34
2023-03-12T05:21:09.335Z,999.32
2023-03-12T05:22:09.322Z,999.31
2023-03-12T05:23:09.329Z,999.29
2023-03-12T05:24:09.302Z,999.28
2023-03-12T05:25:09.254Z,999.27
2023-03-12T05:26:09.222Z,999.26
2023-03-12T05:27:09.215Z,999.26
2023-03-12T05:28:09.229Z,999.28
2023-03-12T05:29:09.194Z,999.28
2023-03-12T05:30:09.179Z,999.29
2023-03-12T05:31:09.275Z,999.29
2023-03-12T05:32:09.174Z,999.29
2023-03-12T05:33:09.156Z,999.26
2023-03-12T05:34:09.141Z,999.24
2023-03-12T05:35:09.804Z,999.22
2023-03-12T05:36:09.306Z,999.20
2023-03-12T05:37:09.108Z,999.21
2023-03-12T05:38:09.094Z,999.21
2023-03-12T05:39:09.108Z,999.24
2023-03-12T05:40:09.082Z,999.26
2023-03-12T05:41:09.095Z,999.25
2023-03-12T05:42:09.057Z,999.22
2023-03-12T05:43:09.055Z,999.17
2023-03-12T05:44:09.027Z,999.12
2023-03-12T05:45:09.039Z,999.08
2023-03-12T05:46:09.116Z,999.09
2023-03-12T05:47:09.008Z,999.12
2023-03-12T05:48:08.979Z,999.15
2023-03-12T05:49:08.989Z,999.22
2023-03-12T05:50:08.963Z,999.24
2023-03-12T05:51:08.981Z,999.24
2023-03-12T05:52:09.891Z,999.25
2023-03-12T05:53:08.931Z,999.23
2023-03-12T05:54:08.924Z,999.21
2023-03-12T05:55:08.913Z,999.17
2023-03-12T05:56:08.889Z,999.16
2023-03-12T05:57:08.890Z,999.15
2023-03-12T05:58:08.875Z,999.10
2023-03-12T05:59:08.869Z,999.08
2023-03-12T06:00:08.857Z,999.05
2023-03-12T06:01:08.834Z,999.01
2023-03-12T06:02:08.951Z,999.00
2023-03-12T06:03:08.858Z,998.97
2023-03-12T06:04:08.799Z,998.99
2023-03-12T06:05:08.796Z,998.98
2023-03-12T06:06:08.782Z,998.97
2023-03-12T06:07:08.890Z,998.96
2023-03-12T06:08:08.775Z,998.93
2023-03-12T06:09:08.751Z,998.89
2023-03-12T06:10:08.752Z,998.86
2023-03-12T06:11:08.736Z,998.85
2023-03-12T06:12:08.742Z,998.84
2023-03-12T06:13:08.709Z,998.83
2023-03-12T06:14:08.687Z,998.83
2023-03-12T06:15:08.690Z,998.82
2023-03-12T06:16:08.659Z,998.81
2023-03-12T06:17:08.658Z,998.78
2023-03-12T06:18:08.647Z,998.75
2023-03-12T06:19:08.637Z,998.71
2023-03-12T06:20:08.632Z,998.65
2023-03-12T06:21:08.619Z,998.62
2023-03-12T06:22:08.598Z,998.60
2023-03-12T06:23:08.592Z,998.57
2023-03-12T06:24:08.586Z,998.51
2023-03-12T06:25:08.600Z,998.47
2023-03-12T06:26:08.566Z,998.47
2023-03-12T06:27:08.555Z,998.44
2023-03-12T06:28:08.535Z,998.46
2023-03-12T06:29:08.544Z,998.49
2023-03-12T06:30:08.537Z,998.54
2023-03-12T06:31:08.557Z,998.58
2023-03-12T06:32:08.501Z,998.62
2023-03-12T06:33:08.484Z,998.64
2023-03-12T06:34:08.472Z,998.62
2023-03-12T06:35:08.471Z,998.60
2023-03-12T06:36:08.464Z,998.55
2023-03-12T06:37:08.441Z,998.53
2023-03-12T06:38:08.421Z,998.53
2023-03-12T06:39:08.428Z,998.54
2023-03-12T06:40:08.395Z,998.54
2023-03-12T06:41:08.416Z,998.53
2023-03-12T06:42:08.910Z,998.57
2023-03-12T06:43:08.374Z,998.59
2023-03-12T06:44:08.347Z,998.63
2023-03-12T06:45:08.348Z,998.65
2023-03-12T06:46:08.391Z,998.68
2023-03-12T06:47:08.333Z,998.66
2023-03-12T06:48:08.307Z,998.70
2023-03-12T06:49:08.308Z,998.70
2023-03-12T06:50:08.284Z,998.70
2023-03-12T06:51:08.304Z,998.70
2023-03-12T06:52:08.271Z,998.69
2023-03-12T06:53:08.255Z,998.65
2023-03-12T06:54:08.249Z,998.61
2023-03-12T06:55:08.252Z,998.63
2023-03-12T06:56:08.223Z,998.61
2023-03-12T06:57:08.240Z,998.57
2023-03-12T06:58:08.198Z,998.57
2023-03-12T06:59:08.212Z,998.56
2023-03-12T07:00:08.246Z,998.57
2023-03-12T07:01:08.194Z,998.58
2023-03-12T07:02:08.220Z,998.55
2023-03-12T07:03:08.169Z,998.52
2023-03-12T07:04:08.145Z,998.50
2023-03-12T07:05:08.219Z,998.50
2023-03-12T07:06:08.128Z,998.51
2023-03-12T07:07:08.184Z,998.48
2023-03-12T07:08:08.106Z,998.47
2023-03-12T07:09:08.124Z,998.51
2023-03-12T07:10:08.078Z,998.49
2023-03-12T07:11:08.078Z,998.52
2023-03-12T07:12:08.054Z,998.56
2023-03-12T07:13:08.169Z,998.59
2023-03-12T07:14:08.049Z,998.54
2023-03-12T07:15:08.027Z,998.53
2023-03-12T07:16:08.061Z,998.51
2023-03-12T07:17:08.022Z,998.50
2023-03-12T07:18:08.013Z,998.49
2023-03-12T07:19:07.992Z,998.47
2023-03-12T07:20:07.990Z,998.46
2023-03-12T07:21:08.000Z,998.45
2023-03-12T07:22:07.976Z,998.43
2023-03-12T07:23:07.969Z,998.42
2023-03-12T07:24:07.937Z,998.43
2023-03-12T07:25:07.937Z,998.45
2023-03-12T07:26:07.945Z,998.47
2023-03-12T07:27:07.920Z,998.49
2023-03-12T07:28:07.890Z,998.51
2023-03-12T07:29:07.888Z,998.51
2023-03-12T07:30:07.876Z,998.50
2023-03-12T07:31:07.884Z,998.51
2023-03-12T07:32:07.868Z,998.51
2023-03-12T07:33:08.004Z,998.52
2023-03-12T07:34:08.010Z,998.52
2023-03-12T07:35:07.822Z,998.52
2023-03-12T07:36:07.913Z,998.51
2023-03-12T07:37:07.813Z,998.51
2023-03-12T07:38:07.863Z,998.49
2023-03-12T07:39:07.773Z,998.48
2023-03-12T07:40:07.823Z,998.47
2023-03-12T07:41:07.842Z,998.47
2023-03-12T07:42:07.813Z,998.45
2023-03-12T07:43:07.728Z,998.42
2023-03-12T07:44:07.766Z,998.37
2023-03-12T07:45:07.721Z,998.37
2023-03-12T07:46:07.701Z,998.35
2023-03-12T07:47:22.682Z,998.32
2023-03-12T07:48:07.747Z,998.32
2023-03-12T07:49:07.670Z,998.32
2023-03-12T07:50:07.754Z,998.30
2023-03-12T07:51:07.673Z,998.29
2023-03-12T07:52:07.685Z,998.28
2023-03-12T07:53:07.628Z,998.28
2023-03-12T07:54:07.618Z,998.28
2023-03-12T07:55:07.658Z,998.27
2023-03-12T07:56:07.758Z,998.27
2023-03-12T07:57:07.758Z,998.28
2023-03-12T07:58:07.700Z,998.29
2023-03-12T07:59:07.703Z,998.24
2023-03-12T08:00:07.592Z,998.25
2023-03-12T08:01:07.565Z,998.28
2023-03-12T08:02:08.535Z,998.25
2023-03-12T08:03:07.854Z,998.24
2023-03-12T08:04:07.616Z,998.22
2023-03-12T08:05:07.556Z,998.20
2023-03-12T08:06:07.561Z,998.15
2023-03-12T08:07:09.300Z,998.17
2023-03-12T08:08:07.458Z,998.19
2023-03-12T08:09:07.458Z,998.21
2023-03-12T08:10:07.555Z,998.21
2023-03-12T08:11:07.440Z,998.20
2023-03-12T08:12:07.487Z,998.19
2023-03-12T08:13:07.429Z,998.15
2023-03-12T08:14:07.460Z,998.13
2023-03-12T08:15:07.401Z,998.12
2023-03-12T08:16:09.414Z,998.11
2023-03-12T08:17:07.389Z,998.10
2023-03-12T08:18:07.365Z,998.11
2023-03-12T08:19:07.350Z,998.10
2023-03-12T08:20:07.339Z,998.12
2023-03-12T08:21:07.322Z,998.12
2023-03-12T08:22:07.320Z,998.13
2023-03-12T08:23:07.311Z,998.14
2023-03-12T08:24:07.293Z,998.15
2023-03-12T08:25:07.306Z,998.17
2023-03-12T08:26:07.267Z,998.19
2023-03-12T08:27:07.252Z,998.19
2023-03-12T08:28:07.296Z,998.19
2023-03-12T08:29:07.242Z,998.17
2023-03-12T08:30:07.222Z,998.16
2023-03-12T08:31:07.250Z,998.17
2023-03-12T08:32:07.255Z,998.17
2023-03-12T08:33:07.225Z,998.15
2023-03-12T08:34:07.198Z,998.11
2023-03-12T08:35:07.182Z,998.09
2023-03-12T08:36:07.163Z,998.10
2023-03-12T08:37:07.151Z,998.11
2023-03-12T08:38:07.144Z,998.11
2023-03-12T08:39:07.128Z,998.12
2023-03-12T08:40:07.130Z,998.07
2023-03-12T08:41:07.126Z,998.07
2023-03-12T08:42:07.124Z,998.08
2023-03-12T08:43:07.088Z,998.07
2023-03-12T08:44:07.070Z,998.07
2023-03-12T08:45:07.062Z,998.06
2023-03-12T08:46:07.051Z,998.06
2023-03-12T08:47:07.133Z,998.06
2023-03-12T08:48:07.073Z,998.08
2023-03-12T08:49:07.033Z,998.07
2023-03-12T08:50:07.018Z,998.03
2023-03-12T08:51:06.999Z,998.03
2023-03-12T08:52:06.989Z,998.06
2023-03-12T08:53:06.996Z,998.04
2023-03-12T08:54:06.973Z,998.04
2023-03-12T08:55:06.981Z,998.02
2023-03-12T08:56:06.943Z,998.02
2023-03-12T08:57:06.940Z,998.02
2023-03-12T08:58:06.941Z,998.01
2023-03-12T08:59:06.932Z,997.98
2023-03-12T09:00:06.899Z,997.94
2023-03-12T09:01:06.898Z,997.94
2023-03-12T09:02:06.880Z,997.91
2023-03-12T09:03:07.012Z,997.89
2023-03-12T09:04:06.908Z,997.89
2023-03-12T09:05:06.871Z,997.88
2023-03-12T09:06:06.838Z,997.88
2023-03-12T09:07:06.839Z,997.90
2023-03-12T09:08:06.839Z,997.89
2023-03-12T09:09:06.836Z,997.89
2023-03-12T09:10:06.821Z,997.87
2023-03-12T09:11:06.806Z,997.87
2023-03-12T09:12:06.777Z,997.87
2023-03-12T09:13:06.771Z,997.87
2023-03-12T09:15:05.756Z,997.88
2023-03-12T09:16:06.742Z,997.86
2023-03-12T09:17:06.728Z,997.82
2023-03-12T09:18:06.719Z,997.85
2023-03-12T09:19:06.706Z,997.82
2023-03-12T09:20:06.716Z,997.82
2023-03-12T09:21:06.682Z,997.84
2023-03-12T09:22:06.699Z,997.83
2023-03-12T09:23:07.764Z,997.86
2023-03-12T09:24:06.683Z,997.82
2023-03-12T09:25:06.659Z,997.88
2023-03-12T09:26:06.650Z,997.89
2023-03-12T09:27:06.608Z,997.92
2023-03-12T09:28:06.602Z,997.92
2023-03-12T09:29:06.588Z,997.91
2023-03-12T09:30:06.617Z,997.87
2023-03-12T09:31:06.611Z,997.88
2023-03-12T09:32:06.570Z,997.84
2023-03-12T09:33:06.566Z,997.85
2023-03-12T09:34:06.555Z,997.81
2023-03-12T09:35:06.523Z,997.80
2023-03-12T09:36:06.619Z,997.78
2023-03-12T09:37:06.509Z,997.75
2023-03-12T09:38:06.495Z,997.75
2023-03-12T09:39:06.488Z,997.79
2023-03-12T09:40:06.474Z,997.78
2023-03-12T09:41:06.479Z,997.79
2023-03-12T09:42:06.532Z,997.83
2023-03-12T09:43:06.443Z,997.79
2023-03-12T09:44:06.447Z,997.83
2023-03-12T09:45:06.422Z,997.85
2023-03-12T09:46:06.478Z,997.84
2023-03-12T09:47:06.391Z,997.83
2023-03-12T09:48:06.401Z,997.83
2023-03-12T09:49:06.374Z,997.77
2023-03-12T09:50:06.378Z,997.80
2023-03-12T09:51:06.357Z,997.79
2023-03-12T09:52:06.349Z,997.85
2023-03-12T09:53:06.351Z,997.83
2023-03-12T09:54:06.326Z,997.85
2023-03-12T09:55:06.316Z,997.85
2023-03-12T09:56:06.306Z,997.89
2023-03-12T09:57:06.323Z,997.90
2023-03-12T09:58:06.299Z,997.91
2023-03-12T09:59:06.269Z,997.93
2023-03-12T10:00:06.260Z,997.96
2023-03-12T10:01:06.255Z,997.97
2023-03-12T10:02:06.242Z,997.92
2023-03-12T10:03:06.311Z,997.92
2023-03-12T10:04:06.240Z,997.92
2023-03-12T10:05:06.265Z,997.89
2023-03-12T10:06:06.249Z,997.92
2023-03-12T10:07:06.183Z,997.87
2023-03-12T10:08:23.098Z,997.96
2023-03-12T10:09:06.168Z,997.96
2023-03-12T10:10:06.163Z,997.99
2023-03-12T10:11:06.144Z,997.93
2023-03-12T10:12:06.143Z,998.00
2023-03-12T10:13:06.127Z,998.03
2023-03-12T10:14:06.187Z,998.06
2023-03-12T10:15:06.102Z,998.05
2023-03-12T10:16:06.158Z,998.13
2023-03-12T10:17:06.074Z,997.95
2023-03-12T10:18:06.320Z,998.13
2023-03-12T10:19:06.115Z,998.10
2023-03-12T10:20:06.046Z,998.14
2023-03-12T10:21:06.048Z,998.14
2023-03-12T10:22:06.029Z,998.11
2023-03-12T10:23:06.018Z,998.07
2023-03-12T10:25:16.268Z,998.05
2023-03-12T10:26:17.236Z,998.06
2023-03-12T10:27:17.233Z,998.07
2023-03-12T10:28:17.218Z,998.06
2023-03-12T10:29:17.209Z,998.06
2023-03-12T10:30:17.203Z,998.04
2023-03-12T10:31:17.192Z,997.96
2023-03-12T10:32:17.213Z,997.95
2023-03-12T10:33:17.163Z,997.97
2023-03-12T10:34:17.152Z,997.97
2023-03-12T10:35:17.853Z,997.97
2023-03-12T10:36:17.136Z,997.99
2023-03-12T10:37:17.143Z,998.02
2023-03-12T10:38:17.119Z,998.02
2023-03-12T10:39:17.099Z,998.08
2023-03-12T10:40:17.096Z,998.07
2023-03-12T10:41:17.077Z,998.07
2023-03-12T10:42:17.078Z,998.07
2023-03-12T10:43:17.083Z,998.08
2023-03-12T10:44:17.061Z,998.08
2023-03-12T10:45:17.034Z,998.08
2023-03-12T10:46:17.058Z,998.10
2023-03-12T10:47:17.025Z,998.12
2023-03-12T10:48:17.007Z,998.15
2023-03-12T10:49:17.004Z,998.17
2023-03-12T10:50:17.006Z,998.18
2023-03-12T10:51:16.978Z,998.17
2023-03-12T10:52:16.967Z,998.20
2023-03-12T10:53:16.965Z,998.23
2023-03-12T10:54:16.938Z,998.24
2023-03-12T10:55:16.942Z,998.26
2023-03-12T10:56:16.932Z,998.24
2023-03-12T10:57:16.922Z,998.26
2023-03-12T10:58:16.898Z,998.24
2023-03-12T10:59:18.013Z,998.25
2023-03-12T11:00:16.892Z,998.28
2023-03-12T11:01:16.962Z,998.23
2023-03-12T11:02:16.860Z,998.20
2023-03-12T11:03:16.853Z,998.21
2023-03-12T11:04:16.844Z,998.23
2023-03-12T11:05:16.820Z,998.25
2023-03-12T11:06:16.849Z,998.26
2023-03-12T11:07:16.820Z,998.23
2023-03-12T11:08:16.797Z,998.28
2023-03-12T11:09:17.705Z,998.28
2023-03-12T11:10:16.775Z,998.33
2023-03-12T11:11:16.769Z,998.35
2023-03-12T11:12:16.755Z,998.28
2023-03-12T11:13:16.736Z,998.30
2023-03-12T11:14:16.759Z,998.29
2023-03-12T11:15:16.719Z,998.29
2023-03-12T11:16:16.800Z,998.29
2023-03-12T11:17:16.692Z,998.33
2023-03-12T11:18:16.705Z,998.29
2023-03-12T11:19:17.015Z,998.33
2023-03-12T11:20:16.670Z,998.29
2023-03-12T11:21:16.657Z,998.28
2023-03-12T11:22:16.643Z,998.23
2023-03-12T11:23:16.625Z,998.28
2023-03-12T11:24:16.638Z,998.29
2023-03-12T11:25:16.620Z,998.26
2023-03-12T11:26:16.603Z,998.22
2023-03-12T11:27:16.592Z,998.21
2023-03-12T11:28:16.634Z,998.15
2023-03-12T11:29:16.566Z,998.16
2023-03-12T11:30:16.627Z,998.13
2023-03-12T11:31:16.670Z,998.09
2023-03-12T11:32:16.594Z,997.98
2023-03-12T11:33:16.520Z,997.97
2023-03-12T11:34:16.517Z,998.04
2023-03-12T11:35:16.530Z,998.14
2023-03-12T11:36:16.504Z,998.20
2023-03-12T11:37:16.486Z,998.22
2023-03-12T11:38:16.477Z,998.17
2023-03-12T11:39:16.474Z,998.22
2023-03-12T11:40:16.473Z,998.22
2023-03-12T11:41:16.442Z,998.18
2023-03-12T11:42:16.443Z,998.17
2023-03-12T11:43:16.450Z,998.16
2023-03-12T11:44:16.424Z,998.14
2023-03-12T11:45:16.408Z,998.18
2023-03-12T11:46:16.420Z,998.18
2023-03-12T11:47:16.434Z,998.17
2023-03-12T11:48:16.409Z,998.16
2023-03-12T11:49:16.363Z,998.21
2023-03-12T11:50:16.358Z,998.19
2023-03-12T11:51:16.344Z,998.20
2023-03-12T11:52:16.338Z,998.15
2023-03-12T11:53:16.318Z,998.20
2023-03-12T11:54:16.336Z,998.20
2023-03-12T11:55:16.713Z,998.19
2023-03-12T11:56:16.292Z,998.17
2023-03-12T11:57:16.261Z,998.17
2023-03-12T11:58:16.259Z,998.21
2023-03-12T11:59:16.277Z,998.24
2023-03-12T12:00:16.235Z,998.14
2023-03-12T12:01:16.267Z,998.12
2023-03-12T12:02:16.250Z,998.11
2023-03-12T12:03:16.342Z,998.16
2023-03-12T12:04:16.197Z,998.19
2023-03-12T12:05:16.199Z,998.21
2023-03-12T12:06:16.201Z,998.18
2023-03-12T12:07:16.180Z,998.13
2023-03-12T12:08:16.181Z,998.13
2023-03-12T12:09:16.135Z,998.15
2023-03-12T12:10:16.157Z,998.17
2023-03-12T12:11:16.118Z,998.19
2023-03-12T12:12:16.127Z,998.17
2023-03-12T12:13:16.095Z,998.12
2023-03-12T12:14:16.104Z,998.10
2023-03-12T12:15:16.071Z,998.07
2023-03-12T12:16:16.125Z,998.10
2023-03-12T12:17:16.071Z,998.09
2023-03-12T12:18:16.055Z,998.07
2023-03-12T12:19:16.036Z,998.06
2023-03-12T12:20:16.034Z,998.02
2023-03-12T12:21:16.012Z,998.04
2023-03-12T12:22:16.012Z,998.07